Sarfaq Ittuk — OWDD — position and weather

sailwx.info

Track history (hours):
 
Tides and Currents Weather Stations Pressure Air Temp Water Temp Dewpoint Dewpoint Depression Visibility Wind Speed Wind Dir Waves Ship Positions

Sarfaq Ittuk

Last reported at 2018-Oct-20 05:30 UTC. Time now 2018-Oct-20 13:39 UTC.
Position N 65°08' W 052°35'.

Length 73 m; beam 11.1 m; draft 3.7 m.

Type: Passenger vessel. MMSI: 331000499.

Date/timePositionNaut miles runAvg speedWind from/ knotsBaromVisibWave heightAir tempDewpointWater temp
2018-Oct-20 05:30N 65°08' W 052°35'510.5
2018-Oct-20 05:01N 65°03' W 052°34'010.2
2018-Oct-20 05:00N 65°03' W 052°34'510.1
2018-Oct-20 04:30N 64°58' W 052°34'410.1
2018-Oct-20 04:03N 64°53' W 052°32'110.1
2018-Oct-20 04:00N 64°53' W 052°32'510.2
2018-Oct-20 03:30N 64°48' W 052°29'510.4
2018-Oct-20 03:03N 64°43' W 052°30'110.3
2018-Oct-20 03:00N 64°43' W 052°30'510.2
2018-Oct-20 02:30N 64°38' W 052°30'410.0
2018-Oct-20 02:03N 64°33' W 052°30'1 9.8
2018-Oct-20 02:00N 64°33' W 052°30'5 9.9
2018-Oct-20 01:30N 64°28' W 052°31'4 9.8
2018-Oct-20 01:03N 64°23' W 052°30'110.1
2018-Oct-20 01:00N 64°23' W 052°30'5 9.8
2018-Oct-20 00:30N 64°18' W 052°27'4 9.6
2018-Oct-20 00:03N 64°14' W 052°24'1 9.6
2018-Oct-20 00:00N 64°13' W 052°24'510.5
2018-Oct-19 23:30N 64°09' W 052°19'511.7
2018-Oct-19 23:03N 64°05' W 052°10'113.1
2018-Oct-19 23:00N 64°05' W 052°08'713.3
2018-Oct-19 22:30N 64°07' W 051°54'612.4
2018-Oct-19 22:03N 64°10' W 051°43'0 1.0
2018-Oct-19 22:01N 64°10' W 051°43'0 0.0
2018-Oct-19 21:30N 64°10' W 051°43'0 0.0
2018-Oct-19 21:03N 64°10' W 051°43'0 0.0
2018-Oct-19 21:01N 64°10' W 051°43'0 0.0
2018-Oct-19 20:30N 64°10' W 051°43'0 0.0
2018-Oct-19 20:03N 64°10' W 051°43'0 0.0
2018-Oct-19 20:00N 64°10' W 051°43'0 0.0
2018-Oct-19 19:30N 64°10' W 051°43'0 0.0
2018-Oct-19 19:03N 64°10' W 051°43'0 0.0
2018-Oct-19 19:00N 64°10' W 051°43'0 0.0
2018-Oct-19 18:30N 64°10' W 051°43'0 0.0
2018-Oct-19 18:03N 64°10' W 051°43'0 0.0
2018-Oct-19 18:00N 64°10' W 051°43'0 0.0
2018-Oct-19 17:30N 64°10' W 051°43'0 0.0
2018-Oct-19 17:03N 64°10' W 051°43'0 0.0
2018-Oct-19 17:00N 64°10' W 051°43'0 0.0
2018-Oct-19 16:30N 64°10' W 051°43'0 0.0
2018-Oct-19 16:03N 64°10' W 051°43'0 0.0
2018-Oct-19 16:00N 64°10' W 051°43'0 0.0
2018-Oct-19 15:30N 64°10' W 051°43'0 0.0
2018-Oct-19 15:03N 64°10' W 051°43'0 0.0
2018-Oct-19 15:00N 64°10' W 051°43'0 0.0
2018-Oct-19 14:30N 64°10' W 051°43'0 0.0
2018-Oct-19 13:30N 64°10' W 051°43'0 0.0
2018-Oct-19 13:03N 64°10' W 051°43'0 0.0
2018-Oct-19 13:00N 64°10' W 051°43'0 0.0
2018-Oct-19 12:30N 64°10' W 051°43'0 0.0
2018-Oct-19 12:03N 64°10' W 051°43'0 0.0
2018-Oct-19 12:00N 64°10' W 051°43'0 0.0
2018-Oct-19 11:30N 64°10' W 051°43'0 0.0
2018-Oct-19 11:04N 64°10' W 051°43'0 0.0
2018-Oct-19 11:00N 64°10' W 051°43'0 0.0
2018-Oct-19 10:30N 64°10' W 051°43'0 0.0
2018-Oct-19 10:03N 64°10' W 051°43'0 0.0
2018-Oct-19 10:00N 64°10' W 051°43'0 0.0
2018-Oct-19 09:30N 64°10' W 051°43'2 4.0
2018-Oct-19 09:03N 64°08' W 051°42'110.5
2018-Oct-19 09:00N 64°08' W 051°41'5 9.3
2018-Oct-19 08:30N 64°04' W 051°38'4 9.4
2018-Oct-19 08:03N 63°59' W 051°41'1 9.8
2018-Oct-19 08:00N 63°59' W 051°40'510.5
2018-Oct-19 07:30N 63°55' W 051°33'510.5
2018-Oct-19 07:03N 63°50' W 051°35'010.4
2018-Oct-19 07:01N 63°49' W 051°35'510.6
2018-Oct-19 06:30N 63°44' W 051°36'  
2018-Oct-16 13:31N 63°44' W 051°36'010.8
2018-Oct-16 13:30N 63°44' W 051°36'511.8
2018-Oct-16 13:03N 63°49' W 051°35'113.0
2018-Oct-16 12:59N 63°50' W 051°34'611.3
2018-Oct-16 12:24N 63°57' W 051°36'411.1
2018-Oct-16 12:03N 64°00' W 051°41'111.0
2018-Oct-16 12:00N 64°01' W 051°41'510.7
2018-Oct-16 11:30N 64°06' W 051°39'510.4
2018-Oct-16 11:03N 64°10' W 051°43'0 0.7
2018-Oct-16 11:00N 64°10' W 051°43'0 0.0
2018-Oct-16 10:30N 64°10' W 051°43'0 0.0
2018-Oct-16 10:03N 64°10' W 051°43'0 0.0
2018-Oct-16 10:00N 64°10' W 051°43'0 0.0
2018-Oct-16 09:30N 64°10' W 051°43'0 0.0
2018-Oct-16 09:03N 64°10' W 051°43'0 0.0
2018-Oct-16 09:00N 64°10' W 051°43'3 5.5
2018-Oct-16 08:30N 64°09' W 051°48'510.7
2018-Oct-16 08:03N 64°06' W 051°58'110.7
2018-Oct-16 08:00N 64°06' W 051°59'510.1
2018-Oct-16 07:30N 64°05' W 052°10'510.5
2018-Oct-16 07:03N 64°08' W 052°19'010.7
2018-Oct-16 07:00N 64°09' W 052°20'510.9
2018-Oct-16 06:30N 64°14' W 052°24'511.6
2018-Oct-16 06:03N 64°19' W 052°27'111.0
2018-Oct-16 06:00N 64°20' W 052°28'611.7
2018-Oct-16 05:30N 64°25' W 052°31'511.4
2018-Oct-16 05:03N 64°30' W 052°33'110.9
2018-Oct-16 05:00N 64°31' W 052°34'611.3
2018-Oct-16 04:30N 64°36' W 052°36'511.6
2018-Oct-16 04:03N 64°41' W 052°38'111.4
2018-Oct-16 04:00N 64°42' W 052°38'611.5
2018-Oct-16 03:30N 64°48' W 052°41'511.3
2018-Oct-16 03:03N 64°53' W 052°43'110.8
2018-Oct-16 03:00N 64°53' W 052°43'611.4
2018-Oct-16 02:30N 64°59' W 052°46'511.4
2018-Oct-16 02:03N 65°04' W 052°48'111.4
2018-Oct-16 02:00N 65°04' W 052°48'611.1
2018-Oct-16 01:29N 65°10' W 052°51'36 7.7
2018-Oct-15 20:54N 65°43' W 053°20'  
2018-Oct-13 05:37N 65°05' W 052°34'111.4
2018-Oct-13 05:30N 65°04' W 052°34'510.6
2018-Oct-13 05:03N 64°59' W 052°35'0 9.6
2018-Oct-13 05:00N 64°59' W 052°35'510.2
2018-Oct-13 04:30N 64°54' W 052°32'4 9.8
2018-Oct-13 04:03N 64°50' W 052°30'0 9.9
2018-Oct-13 04:00N 64°49' W 052°30'510.0
2018-Oct-13 03:30N 64°44' W 052°30'510.4
2018-Oct-13 03:03N 64°40' W 052°30'110.5
2018-Oct-13 03:00N 64°39' W 052°30'5 9.9
2018-Oct-13 02:30N 64°34' W 052°30'4 9.9
2018-Oct-13 02:03N 64°30' W 052°31'110.7
2018-Oct-13 02:00N 64°29' W 052°31'510.0
2018-Oct-13 01:30N 64°24' W 052°30'4 9.7
2018-Oct-13 01:03N 64°20' W 052°28'1 9.7
2018-Oct-13 01:00N 64°19' W 052°27'5 9.3
2018-Oct-13 00:31N 64°15' W 052°25'4 9.5
2018-Oct-13 00:03N 64°11' W 052°22'0 8.8
2018-Oct-13 00:00N 64°10' W 052°22'5 9.6
2018-Oct-12 23:30N 64°06' W 052°15'510.5
2018-Oct-12 23:03N 64°05' W 052°05'111.8
2018-Oct-12 23:00N 64°05' W 052°04'612.4
2018-Oct-12 22:31N 64°08' W 051°52'4 9.8
2018-Oct-12 22:03N 64°10' W 051°43'0 0.0
2018-Oct-12 22:00N 64°10' W 051°43'0 0.0
2018-Oct-12 21:30N 64°10' W 051°43'0 0.0
2018-Oct-12 21:04N 64°10' W 051°43'0 0.0
2018-Oct-12 21:00N 64°10' W 051°43'0 0.0
2018-Oct-12 20:30N 64°10' W 051°43'0 0.0
2018-Oct-12 20:04N 64°10' W 051°43'0 0.0
2018-Oct-12 20:00N 64°10' W 051°43'0 0.0
2018-Oct-12 19:30N 64°10' W 051°43'0 0.0
2018-Oct-12 19:03N 64°10' W 051°43'0 0.0
2018-Oct-12 19:00N 64°10' W 051°43'0 0.0
2018-Oct-12 18:30N 64°10' W 051°43'0 0.0
2018-Oct-12 18:03N 64°10' W 051°43'0 0.0
2018-Oct-12 18:00N 64°10' W 051°43'0 0.0
2018-Oct-12 17:30N 64°10' W 051°43'0 0.0
2018-Oct-12 17:03N 64°10' W 051°43'0 0.0
2018-Oct-12 17:01N 64°10' W 051°43'0 0.0
2018-Oct-12 16:30N 64°10' W 051°43'0 0.0
2018-Oct-12 16:04N 64°10' W 051°43'0 0.0
2018-Oct-12 16:00N 64°10' W 051°43'0 0.0
2018-Oct-12 15:30N 64°10' W 051°43'0 0.0
2018-Oct-12 15:03N 64°10' W 051°43'0 0.0
2018-Oct-12 15:00N 64°10' W 051°43'0 0.0
2018-Oct-12 14:30N 64°10' W 051°43'0 0.0
2018-Oct-12 14:00N 64°10' W 051°43'0 0.0
2018-Oct-12 13:30N 64°10' W 051°43'0 0.0
2018-Oct-12 13:03N 64°10' W 051°43'0 0.0
2018-Oct-12 13:00N 64°10' W 051°43'0 0.0
2018-Oct-12 12:30N 64°10' W 051°43'0 0.0
2018-Oct-12 12:03N 64°10' W 051°43'0 0.0
2018-Oct-12 12:01N 64°10' W 051°43'0 0.0
2018-Oct-12 11:30N 64°10' W 051°43'0 0.0
2018-Oct-12 11:03N 64°10' W 051°43'0 0.0
2018-Oct-12 11:00N 64°10' W 051°43'0 0.0
2018-Oct-12 10:30N 64°10' W 051°43'0 0.0
2018-Oct-12 10:03N 64°10' W 051°43'0 0.0
2018-Oct-12 10:00N 64°10' W 051°43'0 0.0
2018-Oct-12 09:30N 64°10' W 051°43'1 1.5
2018-Oct-12 09:03N 64°09' W 051°43'0 6.3
2018-Oct-12 09:00N 64°09' W 051°43'3 6.7
2018-Oct-12 08:30N 64°06' W 051°39'3 7.6
2018-Oct-12 08:03N 64°03' W 051°38'0 9.9
2018-Oct-12 08:00N 64°03' W 051°39'4 7.9
2018-Oct-12 07:30N 63°58' W 051°39'4 7.7
2018-Oct-12 06:55N 63°55' W 051°33'4 9.8
2018-Oct-12 06:30N 63°51' W 051°34'510.2
2018-Oct-12 06:03N 63°46' W 051°35'110.6
2018-Oct-12 06:00N 63°46' W 051°36'  
Track history (hours):
 
Tides and Currents Weather Stations Pressure Air Temp Water Temp Dewpoint Dewpoint Depression Visibility Wind Speed Wind Dir Waves Ship Positions

Sarfaq Ittuk

Last reported at 2018-Oct-20 05:30 UTC. Time now 2018-Oct-20 13:39 UTC.
Position N 65°08' W 052°35'.

Length 73 m; beam 11.1 m; draft 3.7 m.

Type: Passenger vessel. MMSI: 331000499.

Date/timePositionNaut miles runAvg speedWind from/ knotsBaromVisibWave heightAir tempDewpointWater temp
2018-Oct-20 05:30N 65°08' W 052°35'510.5
2018-Oct-20 05:01N 65°03' W 052°34'010.2
2018-Oct-20 05:00N 65°03' W 052°34'510.1
2018-Oct-20 04:30N 64°58' W 052°34'410.1
2018-Oct-20 04:03N 64°53' W 052°32'110.1
2018-Oct-20 04:00N 64°53' W 052°32'510.2
2018-Oct-20 03:30N 64°48' W 052°29'510.4
2018-Oct-20 03:03N 64°43' W 052°30'110.3
2018-Oct-20 03:00N 64°43' W 052°30'510.2
2018-Oct-20 02:30N 64°38' W 052°30'410.0
2018-Oct-20 02:03N 64°33' W 052°30'1 9.8
2018-Oct-20 02:00N 64°33' W 052°30'5 9.9
2018-Oct-20 01:30N 64°28' W 052°31'4 9.8
2018-Oct-20 01:03N 64°23' W 052°30'110.1
2018-Oct-20 01:00N 64°23' W 052°30'5 9.8
2018-Oct-20 00:30N 64°18' W 052°27'4 9.6
2018-Oct-20 00:03N 64°14' W 052°24'1 9.6
2018-Oct-20 00:00N 64°13' W 052°24'510.5
2018-Oct-19 23:30N 64°09' W 052°19'511.7
2018-Oct-19 23:03N 64°05' W 052°10'113.1
2018-Oct-19 23:00N 64°05' W 052°08'713.3
2018-Oct-19 22:30N 64°07' W 051°54'612.4
2018-Oct-19 22:03N 64°10' W 051°43'0 1.0
2018-Oct-19 22:01N 64°10' W 051°43'0 0.0
2018-Oct-19 21:30N 64°10' W 051°43'0 0.0
2018-Oct-19 21:03N 64°10' W 051°43'0 0.0
2018-Oct-19 21:01N 64°10' W 051°43'0 0.0
2018-Oct-19 20:30N 64°10' W 051°43'0 0.0
2018-Oct-19 20:03N 64°10' W 051°43'0 0.0
2018-Oct-19 20:00N 64°10' W 051°43'0 0.0
2018-Oct-19 19:30N 64°10' W 051°43'0 0.0
2018-Oct-19 19:03N 64°10' W 051°43'0 0.0
2018-Oct-19 19:00N 64°10' W 051°43'0 0.0
2018-Oct-19 18:30N 64°10' W 051°43'0 0.0
2018-Oct-19 18:03N 64°10' W 051°43'0 0.0
2018-Oct-19 18:00N 64°10' W 051°43'0 0.0
2018-Oct-19 17:30N 64°10' W 051°43'0 0.0
2018-Oct-19 17:03N 64°10' W 051°43'0 0.0
2018-Oct-19 17:00N 64°10' W 051°43'0 0.0
2018-Oct-19 16:30N 64°10' W 051°43'0 0.0
2018-Oct-19 16:03N 64°10' W 051°43'0 0.0
2018-Oct-19 16:00N 64°10' W 051°43'0 0.0
2018-Oct-19 15:30N 64°10' W 051°43'0 0.0
2018-Oct-19 15:03N 64°10' W 051°43'0 0.0
2018-Oct-19 15:00N 64°10' W 051°43'0 0.0
2018-Oct-19 14:30N 64°10' W 051°43'0 0.0
2018-Oct-19 13:30N 64°10' W 051°43'0 0.0
2018-Oct-19 13:03N 64°10' W 051°43'0 0.0
2018-Oct-19 13:00N 64°10' W 051°43'0 0.0
2018-Oct-19 12:30N 64°10' W 051°43'0 0.0
2018-Oct-19 12:03N 64°10' W 051°43'0 0.0
2018-Oct-19 12:00N 64°10' W 051°43'0 0.0
2018-Oct-19 11:30N 64°10' W 051°43'0 0.0
2018-Oct-19 11:04N 64°10' W 051°43'0 0.0
2018-Oct-19 11:00N 64°10' W 051°43'0 0.0
2018-Oct-19 10:30N 64°10' W 051°43'0 0.0
2018-Oct-19 10:03N 64°10' W 051°43'0 0.0
2018-Oct-19 10:00N 64°10' W 051°43'0 0.0
2018-Oct-19 09:30N 64°10' W 051°43'2 4.0
2018-Oct-19 09:03N 64°08' W 051°42'110.5
2018-Oct-19 09:00N 64°08' W 051°41'5 9.3
2018-Oct-19 08:30N 64°04' W 051°38'4 9.4
2018-Oct-19 08:03N 63°59' W 051°41'1 9.8
2018-Oct-19 08:00N 63°59' W 051°40'510.5
2018-Oct-19 07:30N 63°55' W 051°33'510.5
2018-Oct-19 07:03N 63°50' W 051°35'010.4
2018-Oct-19 07:01N 63°49' W 051°35'510.6
2018-Oct-19 06:30N 63°44' W 051°36'  
2018-Oct-16 13:31N 63°44' W 051°36'010.8
2018-Oct-16 13:30N 63°44' W 051°36'511.8
2018-Oct-16 13:03N 63°49' W 051°35'113.0
2018-Oct-16 12:59N 63°50' W 051°34'611.3
2018-Oct-16 12:24N 63°57' W 051°36'411.1
2018-Oct-16 12:03N 64°00' W 051°41'111.0
2018-Oct-16 12:00N 64°01' W 051°41'510.7
2018-Oct-16 11:30N 64°06' W 051°39'510.4
2018-Oct-16 11:03N 64°10' W 051°43'0 0.7
2018-Oct-16 11:00N 64°10' W 051°43'0 0.0
2018-Oct-16 10:30N 64°10' W 051°43'0 0.0
2018-Oct-16 10:03N 64°10' W 051°43'0 0.0
2018-Oct-16 10:00N 64°10' W 051°43'0 0.0
2018-Oct-16 09:30N 64°10' W 051°43'0 0.0
2018-Oct-16 09:03N 64°10' W 051°43'0 0.0
2018-Oct-16 09:00N 64°10' W 051°43'3 5.5
2018-Oct-16 08:30N 64°09' W 051°48'510.7
2018-Oct-16 08:03N 64°06' W 051°58'110.7
2018-Oct-16 08:00N 64°06' W 051°59'510.1
2018-Oct-16 07:30N 64°05' W 052°10'510.5
2018-Oct-16 07:03N 64°08' W 052°19'010.7
2018-Oct-16 07:00N 64°09' W 052°20'510.9
2018-Oct-16 06:30N 64°14' W 052°24'511.6
2018-Oct-16 06:03N 64°19' W 052°27'111.0
2018-Oct-16 06:00N 64°20' W 052°28'611.7
2018-Oct-16 05:30N 64°25' W 052°31'511.4
2018-Oct-16 05:03N 64°30' W 052°33'110.9
2018-Oct-16 05:00N 64°31' W 052°34'611.3
2018-Oct-16 04:30N 64°36' W 052°36'511.6
2018-Oct-16 04:03N 64°41' W 052°38'111.4
2018-Oct-16 04:00N 64°42' W 052°38'611.5
2018-Oct-16 03:30N 64°48' W 052°41'511.3
2018-Oct-16 03:03N 64°53' W 052°43'110.8
2018-Oct-16 03:00N 64°53' W 052°43'611.4
2018-Oct-16 02:30N 64°59' W 052°46'511.4
2018-Oct-16 02:03N 65°04' W 052°48'111.4
2018-Oct-16 02:00N 65°04' W 052°48'611.1
2018-Oct-16 01:29N 65°10' W 052°51'36 7.7
2018-Oct-15 20:54N 65°43' W 053°20'  
2018-Oct-13 05:37N 65°05' W 052°34'111.4
2018-Oct-13 05:30N 65°04' W 052°34'510.6
2018-Oct-13 05:03N 64°59' W 052°35'0 9.6
2018-Oct-13 05:00N 64°59' W 052°35'510.2
2018-Oct-13 04:30N 64°54' W 052°32'4 9.8
2018-Oct-13 04:03N 64°50' W 052°30'0 9.9
2018-Oct-13 04:00N 64°49' W 052°30'510.0
2018-Oct-13 03:30N 64°44' W 052°30'510.4
2018-Oct-13 03:03N 64°40' W 052°30'110.5
2018-Oct-13 03:00N 64°39' W 052°30'5 9.9
2018-Oct-13 02:30N 64°34' W 052°30'4 9.9
2018-Oct-13 02:03N 64°30' W 052°31'110.7
2018-Oct-13 02:00N 64°29' W 052°31'510.0
2018-Oct-13 01:30N 64°24' W 052°30'4 9.7
2018-Oct-13 01:03N 64°20' W 052°28'1 9.7
2018-Oct-13 01:00N 64°19' W 052°27'5 9.3
2018-Oct-13 00:31N 64°15' W 052°25'4 9.5
2018-Oct-13 00:03N 64°11' W 052°22'0 8.8
2018-Oct-13 00:00N 64°10' W 052°22'5 9.6
2018-Oct-12 23:30N 64°06' W 052°15'510.5
2018-Oct-12 23:03N 64°05' W 052°05'111.8
2018-Oct-12 23:00N 64°05' W 052°04'612.4
2018-Oct-12 22:31N 64°08' W 051°52'4 9.8
2018-Oct-12 22:03N 64°10' W 051°43'0 0.0
2018-Oct-12 22:00N 64°10' W 051°43'0 0.0
2018-Oct-12 21:30N 64°10' W 051°43'0 0.0
2018-Oct-12 21:04N 64°10' W 051°43'0 0.0
2018-Oct-12 21:00N 64°10' W 051°43'0 0.0
2018-Oct-12 20:30N 64°10' W 051°43'0 0.0
2018-Oct-12 20:04N 64°10' W 051°43'0 0.0
2018-Oct-12 20:00N 64°10' W 051°43'0 0.0
2018-Oct-12 19:30N 64°10' W 051°43'0 0.0
2018-Oct-12 19:03N 64°10' W 051°43'0 0.0
2018-Oct-12 19:00N 64°10' W 051°43'0 0.0
2018-Oct-12 18:30N 64°10' W 051°43'0 0.0
2018-Oct-12 18:03N 64°10' W 051°43'0 0.0
2018-Oct-12 18:00N 64°10' W 051°43'0 0.0
2018-Oct-12 17:30N 64°10' W 051°43'0 0.0
2018-Oct-12 17:03N 64°10' W 051°43'0 0.0
2018-Oct-12 17:01N 64°10' W 051°43'0 0.0
2018-Oct-12 16:30N 64°10' W 051°43'0 0.0
2018-Oct-12 16:04N 64°10' W 051°43'0 0.0
2018-Oct-12 16:00N 64°10' W 051°43'0 0.0
2018-Oct-12 15:30N 64°10' W 051°43'0 0.0
2018-Oct-12 15:03N 64°10' W 051°43'0 0.0
2018-Oct-12 15:00N 64°10' W 051°43'0 0.0
2018-Oct-12 14:30N 64°10' W 051°43'0 0.0
2018-Oct-12 14:00N 64°10' W 051°43'0 0.0
2018-Oct-12 13:30N 64°10' W 051°43'0 0.0
2018-Oct-12 13:03N 64°10' W 051°43'0 0.0
2018-Oct-12 13:00N 64°10' W 051°43'0 0.0
2018-Oct-12 12:30N 64°10' W 051°43'0 0.0
2018-Oct-12 12:03N 64°10' W 051°43'0 0.0
2018-Oct-12 12:01N 64°10' W 051°43'0 0.0
2018-Oct-12 11:30N 64°10' W 051°43'0 0.0
2018-Oct-12 11:03N 64°10' W 051°43'0 0.0
2018-Oct-12 11:00N 64°10' W 051°43'0 0.0
2018-Oct-12 10:30N 64°10' W 051°43'0 0.0
2018-Oct-12 10:03N 64°10' W 051°43'0 0.0
2018-Oct-12 10:00N 64°10' W 051°43'0 0.0
2018-Oct-12 09:30N 64°10' W 051°43'1 1.5
2018-Oct-12 09:03N 64°09' W 051°43'0 6.3
2018-Oct-12 09:00N 64°09' W 051°43'3 6.7
2018-Oct-12 08:30N 64°06' W 051°39'3 7.6
2018-Oct-12 08:03N 64°03' W 051°38'0 9.9
2018-Oct-12 08:00N 64°03' W 051°39'4 7.9
2018-Oct-12 07:30N 63°58' W 051°39'4 7.7
2018-Oct-12 06:55N 63°55' W 051°33'4 9.8
2018-Oct-12 06:30N 63°51' W 051°34'510.2
2018-Oct-12 06:03N 63°46' W 051°35'110.6
2018-Oct-12 06:00N 63°46' W 051°36'  

Dump ship's entire track history